sensor_id;sensor_type;location;lat;lon;timestamp;pressure;altitude;pressure_sealevel;temperature;humidity
47636;BME280;33364;50.766;15.338;2022-12-18T00:01:41;96054.59;;;-9.15;80.14
47636;BME280;33364;50.766;15.338;2022-12-18T00:04:21;96053.19;;;-8.95;81.60
47636;BME280;33364;50.766;15.338;2022-12-18T00:06:47;96050.63;;;-8.99;78.53
47636;BME280;33364;50.766;15.338;2022-12-18T00:09:13;96060.00;;;-8.86;80.03
47636;BME280;33364;50.766;15.338;2022-12-18T00:11:38;96049.28;;;-8.73;81.32
47636;BME280;33364;50.766;15.338;2022-12-18T00:14:04;96063.41;;;-8.79;77.82
47636;BME280;33364;50.766;15.338;2022-12-18T00:16:30;96064.63;;;-9.17;73.31
47636;BME280;33364;50.766;15.338;2022-12-18T00:18:59;96069.50;;;-9.27;75.66
47636;BME280;33364;50.766;15.338;2022-12-18T00:21:27;96075.63;;;-9.05;78.35
47636;BME280;33364;50.766;15.338;2022-12-18T00:23:53;96067.13;;;-9.17;77.52
47636;BME280;33364;50.766;15.338;2022-12-18T00:26:21;96077.22;;;-9.14;80.84
47636;BME280;33364;50.766;15.338;2022-12-18T00:28:47;96087.09;;;-9.23;77.63
47636;BME280;33364;50.766;15.338;2022-12-18T00:31:16;96073.69;;;-9.26;81.57
47636;BME280;33364;50.766;15.338;2022-12-18T00:33:42;96072.16;;;-9.15;83.21
47636;BME280;33364;50.766;15.338;2022-12-18T00:36:17;96080.28;;;-9.33;77.67
47636;BME280;33364;50.766;15.338;2022-12-18T00:38:43;96084.94;;;-9.54;75.42
47636;BME280;33364;50.766;15.338;2022-12-18T00:41:10;96065.97;;;-9.40;79.97
47636;BME280;33364;50.766;15.338;2022-12-18T00:43:37;96078.41;;;-9.48;75.91
47636;BME280;33364;50.766;15.338;2022-12-18T00:46:04;96088.19;;;-9.63;76.31
47636;BME280;33364;50.766;15.338;2022-12-18T00:48:30;96090.09;;;-9.47;79.06
47636;BME280;33364;50.766;15.338;2022-12-18T00:50:55;96093.44;;;-9.48;77.56
47636;BME280;33364;50.766;15.338;2022-12-18T00:53:21;96094.81;;;-9.65;75.37
47636;BME280;33364;50.766;15.338;2022-12-18T00:55:47;96102.41;;;-9.60;76.39
47636;BME280;33364;50.766;15.338;2022-12-18T00:58:14;96103.97;;;-9.67;76.64
47636;BME280;33364;50.766;15.338;2022-12-18T01:00:40;96097.56;;;-9.50;78.90
47636;BME280;33364;50.766;15.338;2022-12-18T01:03:06;96109.53;;;-9.33;78.21
47636;BME280;33364;50.766;15.338;2022-12-18T01:05:32;96107.03;;;-9.32;77.29
47636;BME280;33364;50.766;15.338;2022-12-18T01:07:58;96105.59;;;-9.16;78.67
47636;BME280;33364;50.766;15.338;2022-12-18T01:10:25;96099.72;;;-9.18;81.20
47636;BME280;33364;50.766;15.338;2022-12-18T01:12:51;96111.19;;;-9.32;77.05
47636;BME280;33364;50.766;15.338;2022-12-18T01:15:18;96106.19;;;-9.32;79.45
47636;BME280;33364;50.766;15.338;2022-12-18T01:17:44;96107.03;;;-9.32;77.70
47636;BME280;33364;50.766;15.338;2022-12-18T01:20:11;96105.91;;;-9.49;76.63
47636;BME280;33364;50.766;15.338;2022-12-18T01:22:36;96111.16;;;-9.35;78.99
47636;BME280;33364;50.766;15.338;2022-12-18T01:25:03;96108.78;;;-9.28;78.98
47636;BME280;33364;50.766;15.338;2022-12-18T01:27:29;96112.03;;;-9.33;79.79
47636;BME280;33364;50.766;15.338;2022-12-18T01:29:55;96112.94;;;-9.27;77.96
47636;BME280;33364;50.766;15.338;2022-12-18T01:32:21;96102.94;;;-9.25;79.87
47636;BME280;33364;50.766;15.338;2022-12-18T01:34:47;96119.44;;;-9.40;75.99
47636;BME280;33364;50.766;15.338;2022-12-18T01:37:13;96115.63;;;-9.69;74.38
47636;BME280;33364;50.766;15.338;2022-12-18T01:39:39;96113.09;;;-9.71;78.42
47636;BME280;33364;50.766;15.338;2022-12-18T01:42:12;96114.59;;;-9.80;76.54
47636;BME280;33364;50.766;15.338;2022-12-18T01:44:59;96118.69;;;-9.85;76.67
47636;BME280;33364;50.766;15.338;2022-12-18T01:47:47;96109.09;;;-9.61;79.19
47636;BME280;33364;50.766;15.338;2022-12-18T01:52:56;96114.44;;;-9.91;76.56
47636;BME280;33364;50.766;15.338;2022-12-18T01:55:26;96113.03;;;-9.75;77.86
47636;BME280;33364;50.766;15.338;2022-12-18T01:57:55;96112.34;;;-9.65;79.34
47636;BME280;33364;50.766;15.338;2022-12-18T02:00:23;96116.44;;;-9.72;76.74
47636;BME280;33364;50.766;15.338;2022-12-18T02:02:49;96135.22;;;-9.97;75.34
47636;BME280;33364;50.766;15.338;2022-12-18T02:05:18;96149.78;;;-9.74;79.62
47636;BME280;33364;50.766;15.338;2022-12-18T02:08:00;96149.69;;;-9.80;78.35
47636;BME280;33364;50.766;15.338;2022-12-18T02:10:33;96159.88;;;-9.70;79.79
47636;BME280;33364;50.766;15.338;2022-12-18T02:13:24;96145.09;;;-9.54;81.21
47636;BME280;33364;50.766;15.338;2022-12-18T02:16:03;96139.53;;;-9.38;80.50
47636;BME280;33364;50.766;15.338;2022-12-18T02:18:37;96136.53;;;-9.69;77.27
47636;BME280;33364;50.766;15.338;2022-12-18T02:21:22;96142.63;;;-10.03;76.54
47636;BME280;33364;50.766;15.338;2022-12-18T02:24:02;96148.38;;;-10.07;79.95
47636;BME280;33364;50.766;15.338;2022-12-18T02:26:48;96144.78;;;-10.21;77.19
47636;BME280;33364;50.766;15.338;2022-12-18T02:29:18;96137.41;;;-10.13;79.38
47636;BME280;33364;50.766;15.338;2022-12-18T02:31:54;96140.69;;;-10.16;76.74
47636;BME280;33364;50.766;15.338;2022-12-18T02:34:24;96147.22;;;-10.26;76.27
47636;BME280;33364;50.766;15.338;2022-12-18T02:36:53;96154.69;;;-10.29;79.28
47636;BME280;33364;50.766;15.338;2022-12-18T02:39:21;96158.69;;;-10.37;79.01
47636;BME280;33364;50.766;15.338;2022-12-18T02:41:48;96170.28;;;-10.40;80.70
47636;BME280;33364;50.766;15.338;2022-12-18T02:44:14;96176.41;;;-10.28;81.16
47636;BME280;33364;50.766;15.338;2022-12-18T02:46:44;96170.16;;;-10.03;81.45
47636;BME280;33364;50.766;15.338;2022-12-18T02:52:11;96167.13;;;-9.86;81.03
47636;BME280;33364;50.766;15.338;2022-12-18T02:57:40;96168.31;;;-10.13;77.71
47636;BME280;33364;50.766;15.338;2022-12-18T03:00:10;96158.06;;;-10.25;78.08
47636;BME280;33364;50.766;15.338;2022-12-18T03:02:48;96164.06;;;-10.15;81.90
47636;BME280;33364;50.766;15.338;2022-12-18T03:05:23;96164.97;;;-10.13;79.19
47636;BME280;33364;50.766;15.338;2022-12-18T03:07:57;96162.50;;;-10.10;79.02
47636;BME280;33364;50.766;15.338;2022-12-18T03:10:28;96171.81;;;-10.03;78.85
47636;BME280;33364;50.766;15.338;2022-12-18T03:13:17;96183.38;;;-10.10;78.80
47636;BME280;33364;50.766;15.338;2022-12-18T03:15:47;96184.16;;;-10.12;79.58
47636;BME280;33364;50.766;15.338;2022-12-18T03:18:18;96187.88;;;-9.94;81.07
47636;BME280;33364;50.766;15.338;2022-12-18T03:20:47;96190.22;;;-10.00;78.43
47636;BME280;33364;50.766;15.338;2022-12-18T03:23:18;96191.78;;;-10.08;77.67
47636;BME280;33364;50.766;15.338;2022-12-18T03:25:47;96199.41;;;-10.02;78.94
47636;BME280;33364;50.766;15.338;2022-12-18T03:28:20;96192.97;;;-9.87;81.13
47636;BME280;33364;50.766;15.338;2022-12-18T03:30:47;96199.47;;;-9.97;77.28
47636;BME280;33364;50.766;15.338;2022-12-18T03:33:19;96197.63;;;-10.07;76.25
47636;BME280;33364;50.766;15.338;2022-12-18T03:35:47;96192.31;;;-10.24;74.32
47636;BME280;33364;50.766;15.338;2022-12-18T03:38:13;96201.34;;;-10.31;76.49
47636;BME280;33364;50.766;15.338;2022-12-18T03:40:58;96200.53;;;-10.30;78.44
47636;BME280;33364;50.766;15.338;2022-12-18T03:43:34;96191.69;;;-10.11;80.11
47636;BME280;33364;50.766;15.338;2022-12-18T03:46:47;96188.72;;;-9.92;79.75
47636;BME280;33364;50.766;15.338;2022-12-18T03:49:10;96182.03;;;-9.93;79.60
47636;BME280;33364;50.766;15.338;2022-12-18T03:51:39;96187.91;;;-9.91;78.06
47636;BME280;33364;50.766;15.338;2022-12-18T03:54:08;96187.25;;;-9.80;79.71
47636;BME280;33364;50.766;15.338;2022-12-18T03:56:46;96194.13;;;-9.70;78.61
47636;BME280;33364;50.766;15.338;2022-12-18T03:59:15;96201.78;;;-9.62;78.56
47636;BME280;33364;50.766;15.338;2022-12-18T04:01:46;96194.78;;;-9.80;75.46
47636;BME280;33364;50.766;15.338;2022-12-18T04:04:14;96190.19;;;-10.03;76.30
47636;BME280;33364;50.766;15.338;2022-12-18T04:06:43;96184.47;;;-9.97;79.87
47636;BME280;33364;50.766;15.338;2022-12-18T04:09:10;96190.66;;;-9.77;81.25
47636;BME280;33364;50.766;15.338;2022-12-18T04:11:35;96200.63;;;-9.80;79.51
47636;BME280;33364;50.766;15.338;2022-12-18T04:14:01;96199.84;;;-9.77;78.38
47636;BME280;33364;50.766;15.338;2022-12-18T04:16:27;96190.31;;;-9.97;75.34
47636;BME280;33364;50.766;15.338;2022-12-18T04:18:53;96185.97;;;-10.05;78.33
47636;BME280;33364;50.766;15.338;2022-12-18T04:21:19;96191.59;;;-10.15;80.20
47636;BME280;33364;50.766;15.338;2022-12-18T04:23:45;96190.66;;;-10.24;77.71
47636;BME280;33364;50.766;15.338;2022-12-18T04:26:11;96201.59;;;-10.17;78.77
47636;BME280;33364;50.766;15.338;2022-12-18T04:28:37;96196.88;;;-10.02;79.39
47636;BME280;33364;50.766;15.338;2022-12-18T04:31:03;96204.50;;;-9.96;80.59
47636;BME280;33364;50.766;15.338;2022-12-18T04:33:29;96212.78;;;-10.00;80.17
47636;BME280;33364;50.766;15.338;2022-12-18T04:35:55;96207.13;;;-9.89;81.48
47636;BME280;33364;50.766;15.338;2022-12-18T04:38:21;96218.22;;;-10.19;74.89
47636;BME280;33364;50.766;15.338;2022-12-18T04:40:46;96222.59;;;-10.10;78.00
47636;BME280;33364;50.766;15.338;2022-12-18T04:43:12;96224.13;;;-10.17;77.14
47636;BME280;33364;50.766;15.338;2022-12-18T04:45:38;96222.84;;;-10.40;77.99
47636;BME280;33364;50.766;15.338;2022-12-18T04:48:04;96223.78;;;-10.35;83.12
47636;BME280;33364;50.766;15.338;2022-12-18T04:50:30;96235.41;;;-10.39;78.57
47636;BME280;33364;50.766;15.338;2022-12-18T04:52:56;96232.84;;;-10.42;77.60
47636;BME280;33364;50.766;15.338;2022-12-18T04:55:22;96249.50;;;-10.42;76.98
47636;BME280;33364;50.766;15.338;2022-12-18T04:57:48;96246.38;;;-10.32;77.32
47636;BME280;33364;50.766;15.338;2022-12-18T05:00:13;96259.66;;;-10.36;77.69
47636;BME280;33364;50.766;15.338;2022-12-18T05:02:39;96248.25;;;-10.21;79.67
47636;BME280;33364;50.766;15.338;2022-12-18T05:05:05;96244.75;;;-10.30;74.92
47636;BME280;33364;50.766;15.338;2022-12-18T05:07:31;96258.34;;;-10.58;74.59
47636;BME280;33364;50.766;15.338;2022-12-18T05:09:56;96258.28;;;-10.60;76.14
47636;BME280;33364;50.766;15.338;2022-12-18T05:12:22;96256.81;;;-10.52;76.86
47636;BME280;33364;50.766;15.338;2022-12-18T05:14:49;96253.72;;;-10.40;79.08
47636;BME280;33364;50.766;15.338;2022-12-18T05:17:15;96258.72;;;-10.40;76.56
47636;BME280;33364;50.766;15.338;2022-12-18T05:19:40;96263.00;;;-10.34;78.53
47636;BME280;33364;50.766;15.338;2022-12-18T05:22:06;96271.53;;;-10.26;78.67
47636;BME280;33364;50.766;15.338;2022-12-18T05:24:32;96286.22;;;-10.43;75.64
47636;BME280;33364;50.766;15.338;2022-12-18T05:26:58;96272.91;;;-10.40;76.53
47636;BME280;33364;50.766;15.338;2022-12-18T05:29:23;96279.06;;;-10.64;73.62
47636;BME280;33364;50.766;15.338;2022-12-18T05:31:49;96287.03;;;-10.80;74.82
47636;BME280;33364;50.766;15.338;2022-12-18T05:34:15;96295.31;;;-10.83;77.13
47636;BME280;33364;50.766;15.338;2022-12-18T05:36:41;96285.16;;;-10.53;80.56
47636;BME280;33364;50.766;15.338;2022-12-18T05:39:06;96286.03;;;-10.51;76.54
47636;BME280;33364;50.766;15.338;2022-12-18T05:41:32;96297.38;;;-10.65;74.93
47636;BME280;33364;50.766;15.338;2022-12-18T05:43:58;96300.88;;;-10.58;77.88
47636;BME280;33364;50.766;15.338;2022-12-18T05:46:24;96297.78;;;-10.48;77.69
47636;BME280;33364;50.766;15.338;2022-12-18T05:48:50;96294.66;;;-10.38;80.16
47636;BME280;33364;50.766;15.338;2022-12-18T05:51:19;96307.81;;;-10.47;76.08
47636;BME280;33364;50.766;15.338;2022-12-18T05:53:45;96318.34;;;-10.60;75.74
47636;BME280;33364;50.766;15.338;2022-12-18T05:56:14;96321.91;;;-10.50;79.53
47636;BME280;33364;50.766;15.338;2022-12-18T05:58:40;96321.34;;;-10.38;79.18
47636;BME280;33364;50.766;15.338;2022-12-18T06:01:15;96315.69;;;-10.30;79.75
47636;BME280;33364;50.766;15.338;2022-12-18T06:03:40;96326.69;;;-10.20;79.07
47636;BME280;33364;50.766;15.338;2022-12-18T06:06:19;96331.47;;;-10.34;77.02
47636;BME280;33364;50.766;15.338;2022-12-18T06:08:44;96340.94;;;-10.57;73.87
47636;BME280;33364;50.766;15.338;2022-12-18T06:11:11;96342.09;;;-10.79;74.40
47636;BME280;33364;50.766;15.338;2022-12-18T06:13:37;96330.13;;;-10.54;78.39
47636;BME280;33364;50.766;15.338;2022-12-18T06:16:04;96349.66;;;-10.76;73.03
47636;BME280;33364;50.766;15.338;2022-12-18T06:18:31;96343.06;;;-11.07;73.14
47636;BME280;33364;50.766;15.338;2022-12-18T06:20:59;96346.81;;;-11.24;73.89
47636;BME280;33364;50.766;15.338;2022-12-18T06:23:24;96352.28;;;-11.37;75.08
47636;BME280;33364;50.766;15.338;2022-12-18T06:25:50;96350.75;;;-11.32;77.06
47636;BME280;33364;50.766;15.338;2022-12-18T06:28:16;96335.66;;;-11.04;80.95
47636;BME280;33364;50.766;15.338;2022-12-18T06:30:46;96345.78;;;-10.98;76.50
47636;BME280;33364;50.766;15.338;2022-12-18T06:33:12;96346.25;;;-11.12;74.38
47636;BME280;33364;50.766;15.338;2022-12-18T06:35:38;96352.38;;;-11.34;74.00
47636;BME280;33364;50.766;15.338;2022-12-18T06:38:03;96358.81;;;-11.42;75.85
47636;BME280;33364;50.766;15.338;2022-12-18T06:40:29;96349.66;;;-11.42;76.10
47636;BME280;33364;50.766;15.338;2022-12-18T06:42:55;96353.16;;;-11.35;75.56
47636;BME280;33364;50.766;15.338;2022-12-18T06:45:20;96360.53;;;-11.40;74.32
47636;BME280;33364;50.766;15.338;2022-12-18T06:47:46;96360.47;;;-11.43;74.85
47636;BME280;33364;50.766;15.338;2022-12-18T06:50:12;96362.69;;;-11.52;75.04
47636;BME280;33364;50.766;15.338;2022-12-18T06:52:38;96371.50;;;-11.65;74.44
47636;BME280;33364;50.766;15.338;2022-12-18T06:55:07;96370.72;;;-11.64;75.06
47636;BME280;33364;50.766;15.338;2022-12-18T06:57:33;96377.16;;;-11.70;74.96
47636;BME280;33364;50.766;15.338;2022-12-18T06:59:59;96374.34;;;-11.84;74.13
47636;BME280;33364;50.766;15.338;2022-12-18T07:02:25;96379.09;;;-11.92;74.99
47636;BME280;33364;50.766;15.338;2022-12-18T07:04:51;96369.25;;;-11.87;76.89
47636;BME280;33364;50.766;15.338;2022-12-18T07:07:17;96376.88;;;-11.83;76.56
47636;BME280;33364;50.766;15.338;2022-12-18T07:09:43;96368.84;;;-11.71;76.49
47636;BME280;33364;50.766;15.338;2022-12-18T07:12:09;96371.06;;;-11.80;75.02
47636;BME280;33364;50.766;15.338;2022-12-18T07:14:35;96387.03;;;-11.75;75.98
47636;BME280;33364;50.766;15.338;2022-12-18T07:17:00;96387.13;;;-11.42;79.76
47636;BME280;33364;50.766;15.338;2022-12-18T07:19:26;96392.91;;;-11.13;80.72
47636;BME280;33364;50.766;15.338;2022-12-18T07:21:52;96397.31;;;-11.04;76.44
47636;BME280;33364;50.766;15.338;2022-12-18T07:24:17;96403.47;;;-11.23;74.26
47636;BME280;33364;50.766;15.338;2022-12-18T07:26:46;96411.69;;;-11.27;75.09
47636;BME280;33364;50.766;15.338;2022-12-18T07:29:12;96412.00;;;-11.15;80.39
47636;BME280;33364;50.766;15.338;2022-12-18T07:31:37;96407.06;;;-10.80;81.14
47636;BME280;33364;50.766;15.338;2022-12-18T07:34:03;96410.66;;;-10.71;77.31
47636;BME280;33364;50.766;15.338;2022-12-18T07:36:29;96411.81;;;-10.91;73.47
47636;BME280;33364;50.766;15.338;2022-12-18T07:38:54;96410.34;;;-11.14;72.67
47636;BME280;33364;50.766;15.338;2022-12-18T07:41:21;96412.69;;;-11.20;73.11
47636;BME280;33364;50.766;15.338;2022-12-18T07:43:47;96420.44;;;-11.41;72.39
47636;BME280;33364;50.766;15.338;2022-12-18T07:46:15;96426.44;;;-11.65;72.47
47636;BME280;33364;50.766;15.338;2022-12-18T07:48:42;96418.16;;;-11.64;77.84
47636;BME280;33364;50.766;15.338;2022-12-18T07:51:10;96422.38;;;-11.33;80.05
47636;BME280;33364;50.766;15.338;2022-12-18T07:53:38;96432.91;;;-11.13;77.09
47636;BME280;33364;50.766;15.338;2022-12-18T07:56:06;96428.44;;;-10.93;78.69
47636;BME280;33364;50.766;15.338;2022-12-18T07:58:33;96432.13;;;-10.79;78.98
47636;BME280;33364;50.766;15.338;2022-12-18T08:01:06;96437.19;;;-10.76;76.10
47636;BME280;33364;50.766;15.338;2022-12-18T08:03:33;96440.31;;;-10.84;74.42
47636;BME280;33364;50.766;15.338;2022-12-18T08:06:03;96433.13;;;-10.72;76.26
47636;BME280;33364;50.766;15.338;2022-12-18T08:08:30;96430.03;;;-10.63;76.98
47636;BME280;33364;50.766;15.338;2022-12-18T08:10:56;96439.25;;;-10.61;77.81
47636;BME280;33364;50.766;15.338;2022-12-18T08:13:22;96424.19;;;-10.62;78.50
47636;BME280;33364;50.766;15.338;2022-12-18T08:15:56;96423.38;;;-10.61;77.98
47636;BME280;33364;50.766;15.338;2022-12-18T08:18:22;96425.38;;;-10.48;79.50
47636;BME280;33364;50.766;15.338;2022-12-18T08:20:48;96420.53;;;-10.42;80.54
47636;BME280;33364;50.766;15.338;2022-12-18T08:23:14;96422.31;;;-10.38;81.47
47636;BME280;33364;50.766;15.338;2022-12-18T08:25:39;96421.47;;;-10.38;81.64
47636;BME280;33364;50.766;15.338;2022-12-18T08:28:05;96424.16;;;-10.29;82.17
47636;BME280;33364;50.766;15.338;2022-12-18T08:30:30;96436.59;;;-10.34;80.23
47636;BME280;33364;50.766;15.338;2022-12-18T08:32:56;96437.63;;;-10.24;81.90
47636;BME280;33364;50.766;15.338;2022-12-18T08:35:22;96438.38;;;-10.28;80.89
47636;BME280;33364;50.766;15.338;2022-12-18T08:37:47;96440.88;;;-10.28;81.19
47636;BME280;33364;50.766;15.338;2022-12-18T08:40:13;96440.78;;;-10.33;81.36
47636;BME280;33364;50.766;15.338;2022-12-18T08:42:39;96442.84;;;-10.50;76.98
47636;BME280;33364;50.766;15.338;2022-12-18T08:45:23;96433.66;;;-10.51;81.47
47636;BME280;33364;50.766;15.338;2022-12-18T08:47:50;96430.66;;;-10.37;82.96
47636;BME280;33364;50.766;15.338;2022-12-18T08:50:15;96443.97;;;-10.38;79.76
47636;BME280;33364;50.766;15.338;2022-12-18T08:52:41;96431.34;;;-10.43;79.35
47636;BME280;33364;50.766;15.338;2022-12-18T08:55:08;96426.00;;;-10.57;77.87
47636;BME280;33364;50.766;15.338;2022-12-18T08:57:34;96434.97;;;-10.65;77.88
47636;BME280;33364;50.766;15.338;2022-12-18T08:59:59;96427.97;;;-10.78;77.74
47636;BME280;33364;50.766;15.338;2022-12-18T09:02:25;96418.34;;;-10.63;81.09
47636;BME280;33364;50.766;15.338;2022-12-18T09:04:50;96420.75;;;-10.33;83.95
47636;BME280;33364;50.766;15.338;2022-12-18T09:07:16;96429.91;;;-10.33;82.17
47636;BME280;33364;50.766;15.338;2022-12-18T09:09:42;96428.13;;;-10.39;80.85
47636;BME280;33364;50.766;15.338;2022-12-18T09:12:07;96421.34;;;-10.43;79.55
47636;BME280;33364;50.766;15.338;2022-12-18T09:14:33;96416.69;;;-10.62;78.10
47636;BME280;33364;50.766;15.338;2022-12-18T09:16:59;96414.25;;;-10.59;81.07
47636;BME280;33364;50.766;15.338;2022-12-18T09:19:24;96418.84;;;-10.43;81.73
47636;BME280;33364;50.766;15.338;2022-12-18T09:21:50;96428.19;;;-10.34;80.90
47636;BME280;33364;50.766;15.338;2022-12-18T09:24:16;96424.22;;;-10.28;81.64
47636;BME280;33364;50.766;15.338;2022-12-18T09:26:42;96423.41;;;-10.27;80.40
47636;BME280;33364;50.766;15.338;2022-12-18T09:29:09;96417.56;;;-10.26;80.50
47636;BME280;33364;50.766;15.338;2022-12-18T09:31:36;96421.78;;;-10.23;80.32
47636;BME280;33364;50.766;15.338;2022-12-18T09:34:03;96423.41;;;-10.27;79.68
47636;BME280;33364;50.766;15.338;2022-12-18T09:36:29;96425.97;;;-10.22;81.03
47636;BME280;33364;50.766;15.338;2022-12-18T09:38:54;96419.44;;;-10.15;82.72
47636;BME280;33364;50.766;15.338;2022-12-18T09:44:05;96407.38;;;-9.96;79.90
47636;BME280;33364;50.766;15.338;2022-12-18T09:46:42;96402.47;;;-9.91;80.45
47636;BME280;33364;50.766;15.338;2022-12-18T09:49:14;96413.50;;;-9.83;80.92
47636;BME280;33364;50.766;15.338;2022-12-18T09:51:52;96414.66;;;-9.69;82.99
47636;BME280;33364;50.766;15.338;2022-12-18T09:54:25;96418.03;;;-9.67;80.79
47636;BME280;33364;50.766;15.338;2022-12-18T09:56:55;96426.50;;;-9.60;81.41
47636;BME280;33364;50.766;15.338;2022-12-18T09:59:26;96438.41;;;-9.50;82.26
47636;BME280;33364;50.766;15.338;2022-12-18T10:01:56;96438.41;;;-9.50;81.40
47636;BME280;33364;50.766;15.338;2022-12-18T10:04:21;96447.56;;;-9.52;81.05
47636;BME280;33364;50.766;15.338;2022-12-18T10:07:14;96451.84;;;-9.48;80.38
47636;BME280;33364;50.766;15.338;2022-12-18T10:15:45;96453.81;;;-9.33;81.93
47636;BME280;33364;50.766;15.338;2022-12-18T10:21:18;96450.41;;;-9.36;81.78
47636;BME280;33364;50.766;15.338;2022-12-18T10:24:08;96454.56;;;-9.37;82.41
47636;BME280;33364;50.766;15.338;2022-12-18T10:26:40;96458.22;;;-9.23;82.79
47636;BME280;33364;50.766;15.338;2022-12-18T10:29:13;96458.44;;;-9.10;84.98
47636;BME280;33364;50.766;15.338;2022-12-18T10:31:39;96461.84;;;-9.08;83.89
47636;BME280;33364;50.766;15.338;2022-12-18T10:34:10;96465.19;;;-9.08;83.42
47636;BME280;33364;50.766;15.338;2022-12-18T10:36:35;96461.00;;;-9.07;83.54
47636;BME280;33364;50.766;15.338;2022-12-18T10:39:21;96458.63;;;-9.01;83.08
47636;BME280;33364;50.766;15.338;2022-12-18T10:41:49;96454.47;;;-8.99;82.75
47636;BME280;33364;50.766;15.338;2022-12-18T10:44:22;96449.50;;;-8.98;83.16
47636;BME280;33364;50.766;15.338;2022-12-18T10:46:50;96457.97;;;-8.91;83.17
47636;BME280;33364;50.766;15.338;2022-12-18T10:49:20;96456.19;;;-8.98;80.63
47636;BME280;33364;50.766;15.338;2022-12-18T10:51:47;96452.16;;;-8.89;83.27
47636;BME280;33364;50.766;15.338;2022-12-18T10:54:19;96450.66;;;-8.79;83.79
47636;BME280;33364;50.766;15.338;2022-12-18T10:56:46;96437.47;;;-8.69;82.96
47636;BME280;33364;50.766;15.338;2022-12-18T10:59:15;96433.41;;;-8.62;83.50
47636;BME280;33364;50.766;15.338;2022-12-18T11:01:53;96436.78;;;-8.62;82.05
47636;BME280;33364;50.766;15.338;2022-12-18T11:04:29;96426.75;;;-8.58;82.63
47636;BME280;33364;50.766;15.338;2022-12-18T11:07:04;96422.72;;;-8.52;83.75
47636;BME280;33364;50.766;15.338;2022-12-18T11:09:37;96425.16;;;-8.55;81.09
47636;BME280;33364;50.766;15.338;2022-12-18T11:12:14;96418.53;;;-8.53;83.28
47636;BME280;33364;50.766;15.338;2022-12-18T11:17:18;96405.06;;;-8.00;83.63
47636;BME280;33364;50.766;15.338;2022-12-18T11:19:44;96408.97;;;-7.62;80.86
47636;BME280;33364;50.766;15.338;2022-12-18T11:22:21;96408.81;;;-7.07;81.21
47636;BME280;33364;50.766;15.338;2022-12-18T11:25:02;96406.72;;;-6.64;78.19
47636;BME280;33364;50.766;15.338;2022-12-18T11:27:28;96391.19;;;-6.14;76.62
47636;BME280;33364;50.766;15.338;2022-12-18T11:32:40;96380.84;;;-4.96;74.59
47636;BME280;33364;50.766;15.338;2022-12-18T11:37:41;96380.94;;;-4.33;67.95
47636;BME280;33364;50.766;15.338;2022-12-18T11:40:21;96382.63;;;-4.35;69.26
47636;BME280;33364;50.766;15.338;2022-12-18T11:42:56;96376.75;;;-4.06;68.29
47636;BME280;33364;50.766;15.338;2022-12-18T11:45:30;96380.06;;;-3.83;69.66
47636;BME280;33364;50.766;15.338;2022-12-18T11:48:17;96368.16;;;-3.38;68.27
47636;BME280;33364;50.766;15.338;2022-12-18T11:50:55;96376.63;;;-3.47;67.02
47636;BME280;33364;50.766;15.338;2022-12-18T11:53:22;96374.91;;;-3.34;68.75
47636;BME280;33364;50.766;15.338;2022-12-18T11:56:04;96375.66;;;-3.17;66.35
47636;BME280;33364;50.766;15.338;2022-12-18T11:58:58;96380.69;;;-3.07;64.23
47636;BME280;33364;50.766;15.338;2022-12-18T12:07:07;96379.69;;;-2.73;67.99
47636;BME280;33364;50.766;15.338;2022-12-18T12:09:49;96373.09;;;-3.07;64.85
47636;BME280;33364;50.766;15.338;2022-12-18T12:12:26;96378.19;;;-3.14;66.20
47636;BME280;33364;50.766;15.338;2022-12-18T12:15:19;96382.47;;;-3.32;64.30
47636;BME280;33364;50.766;15.338;2022-12-18T12:18:08;96368.19;;;-3.46;67.14
47636;BME280;33364;50.766;15.338;2022-12-18T12:23:28;96375.03;;;-3.87;65.53
47636;BME280;33364;50.766;15.338;2022-12-18T12:26:17;96358.22;;;-4.11;67.08
47636;BME280;33364;50.766;15.338;2022-12-18T12:28:57;96353.16;;;-4.34;71.53
47636;BME280;33364;50.766;15.338;2022-12-18T12:39:54;96358.16;;;-4.74;72.51
47636;BME280;33364;50.766;15.338;2022-12-18T12:42:49;96362.38;;;-4.75;70.21
47636;BME280;33364;50.766;15.338;2022-12-18T12:45:41;96361.53;;;-4.72;71.12
47636;BME280;33364;50.766;15.338;2022-12-18T12:48:16;96356.50;;;-4.55;72.88
47636;BME280;33364;50.766;15.338;2022-12-18T12:50:44;96352.31;;;-4.52;72.91
47636;BME280;33364;50.766;15.338;2022-12-18T12:53:23;96348.09;;;-4.30;70.82
47636;BME280;33364;50.766;15.338;2022-12-18T12:55:52;96359.91;;;-4.26;70.84
47636;BME280;33364;50.766;15.338;2022-12-18T12:58:28;96366.63;;;-4.29;72.26
47636;BME280;33364;50.766;15.338;2022-12-18T13:01:17;96366.63;;;-4.12;70.49
47636;BME280;33364;50.766;15.338;2022-12-18T13:04:23;96369.16;;;-4.20;69.01
47636;BME280;33364;50.766;15.338;2022-12-18T13:06:58;96382.63;;;-4.29;68.45
47636;BME280;33364;50.766;15.338;2022-12-18T13:09:30;96384.34;;;-4.22;71.44
47636;BME280;33364;50.766;15.338;2022-12-18T13:12:02;96385.16;;;-4.27;68.33
47636;BME280;33364;50.766;15.338;2022-12-18T13:14:46;96386.84;;;-4.40;69.32
47636;BME280;33364;50.766;15.338;2022-12-18T13:19:50;96389.38;;;-4.23;68.15
47636;BME280;33364;50.766;15.338;2022-12-18T13:22:37;96388.53;;;-4.39;72.48
47636;BME280;33364;50.766;15.338;2022-12-18T13:28:06;96392.72;;;-4.47;67.67
47636;BME280;33364;50.766;15.338;2022-12-18T13:40:55;96417.00;;;-5.10;70.02
47636;BME280;33364;50.766;15.338;2022-12-18T13:43:26;96416.97;;;-5.16;71.38
47636;BME280;33364;50.766;15.338;2022-12-18T13:46:44;96430.34;;;-5.34;72.56
47636;BME280;33364;50.766;15.338;2022-12-18T13:51:55;96440.09;;;-5.89;70.46
47636;BME280;33364;50.766;15.338;2022-12-18T13:54:35;96433.41;;;-5.86;75.37
47636;BME280;33364;50.766;15.338;2022-12-18T13:57:03;96435.13;;;-5.79;75.97
47636;BME280;33364;50.766;15.338;2022-12-18T13:59:37;96443.47;;;-5.83;74.83
47636;BME280;33364;50.766;15.338;2022-12-18T14:02:13;96446.00;;;-5.83;74.65
47636;BME280;33364;50.766;15.338;2022-12-18T14:04:40;96446.69;;;-6.08;73.92